Terminal Aerodrome Forecast
Issued by NWS

Home | Current Version | Previous Version | Text Only | Print | Product List | Glossary On
Versions: 1 2 3 4 5 6 7 8 9 10 11 12 13 14 15 16 17 18 19 20 21 22 23 24 25
000
FTUS44 KOHX 261100
TAFCKV
TAF
KCKV 261127Z 2612/2712 16007KT P6SM FEW110
     FM261400 19015G22KT P6SM VCSH OVC035
      TEMPO 2614/2618 3SM -SHRA BR BKN025 OVC035
     FM261800 19012G25KT P6SM VCTS BKN050CB
     FM262300 20008KT P6SM SCT050 BKN250
     FM270600 19005KT 4SM BR OVC015=

USA.gov is the U.S. government's official web portal to all federal, state and local government web resources and services.